Hlavní strana
METAR-TAF:

METAR-TAF

Letiště :

Bahrajn, Bahrajn

zeměpisná šířka: 26-16N, zeměpisná délka: 050-39E, výška: 2 m

Aktuální stav počasí

Zpráva byla vytvořena před 27 minutami, v 23:30 UTC
Západní vítr 4 kt, proměnlivý mezi jihozápadním a západním
Teplota 31°C
Vlhkost vzduchu 55%
Tlak 1012 hPa
Viditelnost 10 km a více
Žádná oblačnost pod 1500 m, nevyskytují se cumulonimby.

METAR: OBBI 152330Z 26004KT 220V280 CAVOK 31/21 Q1012 NOSIG

Čas: 02:57 (23:57 UTC)

Předpověď počasí

Zpráva byla vytvořena před 57 minutami, v 23:00 UTC
Předpověď platná od 16 v 00 UTC do 17 v 06 UTC
vítr z různých směrů 5 kt
Viditelnost: 8000 m
Změna
od 16 v 09 UTC do 16 v 11 UTC
Východoseverovýchodní vítr 10 kt
Skoro jasno ve výšce 3000 ft
Změna
od 16 v 18 UTC do 16 v 20 UTC
vítr z různých směrů 5 kt

TAF: OBBI 152300Z 1600/1706 VRB05KT 8000 NSC BECMG 1609/1611 06010KT FEW030 BECMG 1618/1620 VRB05KT

Stav a předpovědi počasí z více než 4 000 letišť (zprávy METAR a TAF).

Červené a žluté tečky na mapě představují dostupné meteorologické stanice.

Když kurzor umístíte na tečku, zobrazí se název stanice.

Pak kliknutím zobrazíte stav a předpověď počasí.

Chcete-li změnit mapu, kliknutím na zelené tlačítko se znaménkem +mapu přiblížíte, kliknutím na zelené tlačítko se znaménkem – mapu oddálíte a kliknutím na zelené šipky přejdete na sousední mapy.


METAR-TAF: